Time;durP1;ratioP1;P1;durP2;ratioP2;P2;SDS_P1;SDS_P2;PMS_P1;PMS_P2;Temp;Humidity;BMP_temperature;BMP_pressure;BME280_temperature;BME280_humidity;BME280_pressure;Samples;Min_cycle;Max_cycle;Signal;HPM_P1;HPM_P2
2022/07/22 00:01:20;;;;;;;6.62;5.58;;;;;;;22.05;54.88;100315.26;2178522;80;20970;-75
2022/07/22 00:04:21;;;;;;;8.53;6.08;;;;;;;21.98;55.06;100322.66;2179510;81;21108;-75
2022/07/22 00:07:22;;;;;;;8.23;6.17;;;;;;;21.81;55.04;100311.22;2180439;81;21008;-74
2022/07/22 00:10:23;;;;;;;8.60;6.10;;;;;;;21.77;55.07;100315.46;2178247;80;21587;-75
2022/07/22 00:13:24;;;;;;;8.50;6.78;;;;;;;21.74;55.19;100312.39;2179387;80;21065;-75
2022/07/22 00:16:25;;;;;;;6.17;5.55;;;;;;;21.70;55.56;100315.56;2175538;81;21054;-74
2022/07/22 00:19:27;;;;;;;5.90;5.37;;;;;;;21.67;55.76;100317.38;2180357;80;20970;-74
2022/07/22 00:22:28;;;;;;;7.62;6.10;;;;;;;21.64;56.12;100310.29;2173066;81;21050;-74
2022/07/22 00:25:29;;;;;;;8.85;5.80;;;;;;;21.53;56.39;100314.63;2179311;81;20998;-75
2022/07/22 00:28:30;;;;;;;7.00;6.28;;;;;;;21.43;56.97;100320.62;2176222;80;21050;-74
2022/07/22 00:31:31;;;;;;;7.55;5.85;;;;;;;21.33;57.29;100324.38;2178541;80;21538;-74
2022/07/22 00:34:32;;;;;;;7.95;6.17;;;;;;;21.24;57.42;100323.89;2179024;81;21656;-74
2022/07/22 00:37:35;;;;;;;6.75;6.15;;;;;;;21.19;57.79;100326.46;2180100;81;21039;-75
2022/07/22 00:40:37;;;;;;;9.68;6.12;;;;;;;21.11;57.82;100320.58;2179262;81;21004;-74
2022/07/22 00:43:55;;;;;;;8.75;5.58;;;;;;;21.08;58.10;100325.09;2181910;80;21543;-75
2022/07/22 00:46:56;;;;;;;6.90;6.12;;;;;;;21.06;58.50;100323.95;2176612;80;21035;-74
2022/07/22 00:49:57;;;;;;;6.40;5.75;;;;;;;21.01;58.90;100323.32;2176006;81;20974;-74
2022/07/22 00:52:59;;;;;;;5.83;5.33;;;;;;;20.94;59.12;100318.53;2169866;80;21087;-73
2022/07/22 00:56:01;;;;;;;6.50;5.90;;;;;;;20.90;59.43;100312.50;2167169;81;21040;-74
2022/07/22 00:59:06;;;;;;;6.70;5.95;;;;;;;20.84;59.61;100313.43;2158112;82;21023;-73
2022/07/22 01:02:09;;;;;;;7.45;5.95;;;;;;;20.80;59.99;100307.12;2163424;82;21015;-73
2022/07/22 01:05:10;;;;;;;7.00;6.12;;;;;;;20.79;59.90;100308.71;2158310;81;20997;-74
2022/07/22 01:08:12;;;;;;;8.35;6.25;;;;;;;20.80;60.37;100307.65;2162787;81;20981;-73
2022/07/22 01:11:17;;;;;;;9.20;6.55;;;;;;;20.77;60.30;100304.06;2158284;81;20992;-73
2022/07/22 01:14:18;;;;;;;10.08;6.87;;;;;;;20.73;60.55;100309.10;2164821;81;20991;-73
2022/07/22 01:17:20;;;;;;;7.30;6.45;;;;;;;20.68;60.77;100314.35;2157177;81;21145;-73
2022/07/22 01:20:21;;;;;;;9.78;7.15;;;;;;;20.64;60.78;100312.33;2165022;82;21119;-73
2022/07/22 01:23:23;;;;;;;8.03;6.37;;;;;;;20.57;61.00;100320.52;2162769;82;20987;-73
2022/07/22 01:26:24;;;;;;;7.75;7.05;;;;;;;20.54;61.26;100327.71;2157236;82;21453;-73
2022/07/22 01:29:26;;;;;;;12.33;7.47;;;;;;;20.50;61.32;100340.80;2160379;81;21058;-73
2022/07/22 01:32:27;;;;;;;9.98;6.55;;;;;;;20.49;61.52;100339.66;2161776;81;20970;-73
2022/07/22 01:35:28;;;;;;;9.38;6.75;;;;;;;20.48;61.71;100349.63;2155058;81;21078;-73
2022/07/22 01:38:29;;;;;;;15.23;8.53;;;;;;;20.46;61.83;100353.59;2167749;80;21018;-73
2022/07/22 01:41:33;;;;;;;14.75;7.50;;;;;;;20.37;61.79;100351.73;2161295;82;21007;-73
2022/07/22 01:44:34;;;;;;;9.73;6.95;;;;;;;20.37;61.89;100357.12;2161469;82;21047;-73
2022/07/22 01:47:36;;;;;;;11.15;7.78;;;;;;;20.36;61.98;100349.56;2137894;82;21590;-73
2022/07/22 01:50:37;;;;;;;7.65;6.72;;;;;;;20.35;61.84;100340.34;2155190;81;20986;-73
2022/07/22 01:53:38;;;;;;;11.25;6.97;;;;;;;20.36;62.03;100333.92;2165541;82;20982;-73
2022/07/22 01:56:40;;;;;;;10.25;7.22;;;;;;;20.34;62.29;100331.97;2165747;81;21053;-73
2022/07/22 01:59:41;;;;;;;6.47;5.95;;;;;;;20.34;62.32;100330.62;2165020;81;21015;-73
2022/07/22 02:02:42;;;;;;;8.03;6.55;;;;;;;20.29;62.39;100338.02;2167981;81;22376;-73
2022/07/22 02:05:45;;;;;;;9.40;7.28;;;;;;;20.27;62.76;100344.69;2159482;81;21099;-73
2022/07/22 02:08:48;;;;;;;8.55;7.17;;;;;;;20.24;62.84;100350.00;2160486;81;21488;-74
2022/07/22 02:11:51;;;;;;;9.95;6.67;;;;;;;20.19;62.89;100342.29;2159810;82;20997;-73
2022/07/22 02:14:52;;;;;;;8.08;6.47;;;;;;;20.15;62.96;100337.35;2165353;82;21034;-73
2022/07/22 02:17:54;;;;;;;7.22;6.53;;;;;;;20.11;63.00;100349.64;2159793;81;20992;-73
2022/07/22 02:20:55;;;;;;;9.68;6.90;;;;;;;20.05;63.06;100365.35;2159811;82;21066;-73
2022/07/22 02:23:56;;;;;;;14.58;7.47;;;;;;;20.02;63.08;100363.11;2158336;82;21573;-73
2022/07/22 02:26:58;;;;;;;10.88;7.12;;;;;;;20.01;63.23;100368.17;2164467;82;20967;-72
2022/07/22 02:29:59;;;;;;;9.33;7.40;;;;;;;20.01;63.29;100372.21;2160733;82;20992;-73
2022/07/22 02:33:01;;;;;;;10.00;7.45;;;;;;;19.97;63.41;100379.10;2161272;82;21046;-73
2022/07/22 02:36:03;;;;;;;8.33;7.53;;;;;;;19.95;63.30;100385.75;2165170;82;21052;-73
2022/07/22 02:39:06;;;;;;;8.65;7.85;;;;;;;19.93;63.36;100399.42;2159765;82;21098;-73
2022/07/22 02:42:08;;;;;;;8.45;6.75;;;;;;;19.88;63.34;100423.52;2162924;81;21570;-73
2022/07/22 02:45:10;;;;;;;9.95;7.83;;;;;;;19.83;63.40;100434.13;2161405;82;21566;-73
2022/07/22 02:48:11;;;;;;;13.13;8.20;;;;;;;19.82;63.60;100441.88;2138198;82;21495;-73
2022/07/22 02:51:14;;;;;;;9.65;8.25;;;;;;;19.76;63.80;100438.72;2165335;81;21058;-73
2022/07/22 02:54:15;;;;;;;9.73;8.53;;;;;;;19.68;64.16;100442.50;2180544;81;21098;-73
2022/07/22 02:57:17;;;;;;;10.65;8.73;;;;;;;19.61;64.70;100457.33;2177485;80;21102;-73
2022/07/22 03:00:18;;;;;;;12.58;8.45;;;;;;;19.57;64.97;100466.05;2180506;80;21022;-73
2022/07/22 03:03:20;;;;;;;10.90;8.35;;;;;;;19.58;65.52;100476.61;2179529;80;21102;-73
2022/07/22 03:06:21;;;;;;;9.70;7.70;;;;;;;19.65;65.69;100488.67;2180935;80;21013;-73
2022/07/22 03:09:24;;;;;;;9.43;7.75;;;;;;;19.77;65.64;100472.70;2131008;81;20984;-73
2022/07/22 03:12:25;;;;;;;11.12;8.63;;;;;;;19.92;65.40;100465.11;2238217;78;21168;-73
2022/07/22 03:20:08;;;;;;;14.95;9.78;;;;;;;20.17;65.96;100518.16;2238833;78;21042;-74
2022/07/22 03:23:10;;;;;;;18.32;10.65;;;;;;;20.06;66.86;100514.31;2240650;78;21061;-74
2022/07/22 03:26:12;;;;;;;13.50;10.32;;;;;;;19.98;67.71;100510.00;2209634;79;20979;-74
2022/07/22 03:29:13;;;;;;;15.63;11.08;;;;;;;19.91;67.69;100506.55;2197232;80;21065;-74
2022/07/22 03:32:14;;;;;;;15.48;10.60;;;;;;;19.83;68.23;100509.52;2237403;78;21505;-74
2022/07/22 03:35:18;;;;;;;13.75;10.38;;;;;;;19.81;68.34;100500.30;2241428;78;21521;-74
2022/07/22 03:38:20;;;;;;;14.33;10.50;;;;;;;19.78;68.70;100469.77;2243488;78;21056;-75
2022/07/22 03:41:23;;;;;;;16.87;11.00;;;;;;;19.77;69.08;100432.31;2240265;78;21029;-74
2022/07/22 03:44:25;;;;;;;19.17;11.28;;;;;;;19.78;68.91;100429.91;2235588;78;21040;-73
2022/07/22 03:47:26;;;;;;;13.90;9.58;;;;;;;19.82;69.08;100428.41;2240599;78;20958;-74
2022/07/22 03:50:27;;;;;;;17.57;10.48;;;;;;;19.80;69.25;100388.80;2239097;78;21015;-73
2022/07/22 03:53:29;;;;;;;12.93;10.90;;;;;;;19.72;69.18;100383.69;2241380;78;21087;-74
2022/07/22 03:56:32;;;;;;;14.50;10.45;;;;;;;19.68;69.16;100357.70;2245579;78;21052;-75
2022/07/22 03:59:33;;;;;;;15.38;10.58;;;;;;;19.63;69.51;100338.70;2245168;78;21010;-73
2022/07/22 04:02:36;;;;;;;12.03;10.40;;;;;;;19.63;69.59;100335.48;2239451;78;21040;-73
2022/07/22 04:05:37;;;;;;;12.75;9.93;;;;;;;19.69;69.82;100331.93;2246654;78;20942;-74
2022/07/22 04:08:38;;;;;;;14.28;10.23;;;;;;;19.75;69.85;100329.41;2215665;79;21060;-75
2022/07/22 04:11:39;;;;;;;15.28;10.23;;;;;;;19.79;70.06;100332.75;2241403;78;20953;-74
2022/07/22 04:14:40;;;;;;;12.60;9.83;;;;;;;19.83;69.95;100332.63;2245306;78;21360;-73
2022/07/22 04:17:42;;;;;;;15.28;10.15;;;;;;;19.86;69.75;100330.02;2246030;78;21061;-76
2022/07/22 04:20:44;;;;;;;13.72;10.60;;;;;;;19.85;69.89;100341.81;2247198;78;21099;-73
2022/07/22 04:23:48;;;;;;;15.10;10.50;;;;;;;19.91;70.03;100348.50;2242236;78;21485;-74
2022/07/22 04:26:51;;;;;;;13.62;10.53;;;;;;;19.95;69.88;100351.56;2245444;78;21442;-74
2022/07/22 04:29:52;;;;;;;15.53;10.23;;;;;;;19.93;69.85;100340.18;2218641;78;21563;-74
2022/07/22 04:32:53;;;;;;;12.93;10.13;;;;;;;19.85;70.15;100335.93;2243824;78;21005;-75
2022/07/22 04:35:55;;;;;;;13.90;10.60;;;;;;;19.84;70.36;100329.41;2245901;78;21520;-74
2022/07/22 04:38:56;;;;;;;15.35;10.35;;;;;;;19.86;70.47;100324.63;2238830;78;21569;-74
2022/07/22 04:41:58;;;;;;;16.52;11.25;;;;;;;19.93;70.80;100322.67;2242198;78;21052;-74
2022/07/22 04:45:01;;;;;;;14.83;10.95;;;;;;;20.04;71.02;100319.77;2243112;78;20990;-74
2022/07/22 04:48:03;;;;;;;12.20;10.60;;;;;;;20.36;71.50;100312.37;2240614;78;21025;-74
2022/07/22 04:51:08;;;;;;;11.97;10.75;;;;;;;20.69;71.14;100312.47;2244505;78;21010;-74
2022/07/22 04:54:09;;;;;;;13.08;10.38;;;;;;;20.83;70.70;100315.27;2243223;78;21041;-74
2022/07/22 04:57:12;;;;;;;13.43;10.98;;;;;;;21.03;70.65;100318.53;2240086;78;21074;-74
2022/07/22 05:00:16;;;;;;;16.37;10.55;;;;;;;21.23;70.53;100322.27;2239400;78;21052;-74
2022/07/22 05:03:19;;;;;;;12.85;10.72;;;;;;;21.37;70.42;100328.30;2236289;78;21000;-74
2022/07/22 05:06:21;;;;;;;14.80;12.20;;;;;;;21.48;70.32;100344.19;2240979;78;21041;-74
2022/07/22 05:09:22;;;;;;;12.20;11.00;;;;;;;21.65;70.20;100351.08;2242101;78;20989;-74
2022/07/22 05:12:23;;;;;;;14.53;11.15;;;;;;;21.76;70.00;100352.95;2240162;78;20974;-74
2022/07/22 05:15:25;;;;;;;12.58;11.12;;;;;;;21.86;69.70;100353.73;2235442;78;20953;-74
2022/07/22 05:18:26;;;;;;;13.22;10.15;;;;;;;22.08;69.78;100351.26;2242249;78;21001;-74
2022/07/22 05:21:27;;;;;;;12.00;10.23;;;;;;;22.51;69.71;100352.19;2240387;78;20946;-74
2022/07/22 05:24:29;;;;;;;15.58;10.65;;;;;;;22.78;69.15;100358.39;2241541;78;20986;-74
2022/07/22 05:27:31;;;;;;;14.23;10.55;;;;;;;22.90;68.46;100353.75;2244582;78;21045;-74
2022/07/22 05:30:33;;;;;;;11.90;10.65;;;;;;;22.96;68.02;100358.22;2240271;78;21382;-75
2022/07/22 05:33:34;;;;;;;14.25;10.82;;;;;;;22.97;67.83;100360.38;2240987;78;21044;-74
2022/07/22 05:36:42;;;;;;;15.08;11.50;;;;;;;22.92;67.72;100370.56;2244169;78;21108;-74
2022/07/22 05:39:44;;;;;;;13.10;11.68;;;;;;;22.91;67.70;100375.67;2235668;78;21105;-74
2022/07/22 05:42:45;;;;;;;15.35;11.43;;;;;;;22.88;67.66;100373.45;2241305;78;21539;-75
2022/07/22 05:45:46;;;;;;;13.85;11.88;;;;;;;22.97;67.72;100381.48;2239376;78;20919;-74
2022/07/22 05:48:47;;;;;;;17.90;12.47;;;;;;;23.01;67.59;100381.84;2239095;78;21053;-74
2022/07/22 05:51:48;;;;;;;15.10;10.98;;;;;;;23.17;67.86;100391.89;2244919;78;21036;-75
2022/07/22 05:54:49;;;;;;;16.30;10.28;;;;;;;23.67;67.82;100392.44;2233976;79;21038;-76
2022/07/22 05:57:50;;;;;;;11.68;10.32;;;;;;;24.08;66.97;100397.71;2232924;79;21473;-74
2022/07/22 06:00:51;;;;;;;11.55;10.30;;;;;;;24.56;66.65;100395.66;2233526;79;21013;-75
2022/07/22 06:03:53;;;;;;;12.40;10.43;;;;;;;25.30;66.08;100405.17;2229631;79;21014;-75
2022/07/22 06:06:54;;;;;;;9.90;8.58;;;;;;;26.01;64.79;100404.13;2235793;79;20967;-75
2022/07/22 06:09:56;;;;;;;12.03;9.50;;;;;;;26.68;63.90;100402.03;2211605;79;21033;-75
2022/07/22 06:12:58;;;;;;;12.30;9.40;;;;;;;27.29;62.34;100395.14;2239913;79;21062;-74
2022/07/22 06:16:00;;;;;;;12.15;9.38;;;;;;;27.83;61.18;100393.25;2233132;79;21029;-73
2022/07/22 06:19:02;;;;;;;9.45;8.55;;;;;;;28.22;59.96;100393.98;2214633;79;20994;-73
2022/07/22 06:22:04;;;;;;;9.80;8.58;;;;;;;28.51;58.64;100401.80;2231018;79;21527;-74
2022/07/22 06:25:06;;;;;;;10.28;8.80;;;;;;;28.74;57.56;100388.59;2236581;79;21049;-73
2022/07/22 06:28:08;;;;;;;9.75;8.28;;;;;;;29.00;56.91;100395.56;2231084;79;21033;-73
2022/07/22 06:31:09;;;;;;;11.18;8.43;;;;;;;29.30;56.26;100389.63;2227161;79;20990;-73
2022/07/22 06:34:10;;;;;;;9.00;8.20;;;;;;;29.51;55.22;100394.41;2231688;79;21139;-73
2022/07/22 06:37:19;;;;;;;9.55;7.85;;;;;;;29.62;54.35;100397.84;2236960;79;21049;-74
2022/07/22 06:40:20;;;;;;;10.65;7.65;;;;;;;29.84;53.64;100390.00;2233016;79;20955;-74
2022/07/22 06:43:23;;;;;;;8.03;7.33;;;;;;;30.06;52.98;100398.27;2228432;79;21032;-76
2022/07/22 06:46:26;;;;;;;10.48;7.72;;;;;;;30.22;52.45;100396.22;2234246;79;20978;-74
2022/07/22 06:49:28;;;;;;;9.03;8.10;;;;;;;30.66;51.84;100404.70;2232188;79;21036;-74
2022/07/22 06:52:29;;;;;;;10.35;8.55;;;;;;;30.86;51.11;100399.53;2205084;78;21081;-74
2022/07/22 06:55:32;;;;;;;8.33;7.45;;;;;;;30.98;50.41;100393.08;2240847;78;21116;-74
2022/07/22 06:58:37;;;;;;;8.55;7.72;;;;;;;31.11;49.85;100391.50;2242974;78;21025;-74
2022/07/22 07:01:39;;;;;;;10.93;8.05;;;;;;;31.22;49.25;100391.03;2239230;78;21607;-74
2022/07/22 07:04:41;;;;;;;8.20;7.17;;;;;;;31.26;48.90;100387.16;2244154;78;20950;-74
2022/07/22 07:07:42;;;;;;;8.55;7.28;;;;;;;31.47;48.37;100389.84;2240786;78;20946;-74
2022/07/22 07:10:44;;;;;;;7.35;6.65;;;;;;;31.81;47.52;100388.70;2244794;78;20978;-75
2022/07/22 07:13:47;;;;;;;7.95;6.62;;;;;;;32.12;46.63;100392.28;2244511;78;21374;-75
2022/07/22 07:16:48;;;;;;;6.95;6.25;;;;;;;32.32;45.73;100389.68;2246680;78;20951;-75
2022/07/22 07:19:51;;;;;;;7.20;6.50;;;;;;;32.52;45.10;100387.09;2239099;78;21018;-74
2022/07/22 07:22:52;;;;;;;7.67;6.87;;;;;;;32.70;44.39;100392.22;2239946;78;21533;-75
2022/07/22 07:25:54;;;;;;;7.22;6.62;;;;;;;32.67;43.33;100390.09;2208219;78;20994;-74
2022/07/22 07:28:56;;;;;;;8.35;6.33;;;;;;;32.70;43.24;100387.54;2241443;78;21032;-74
2022/07/22 07:32:14;;;;;;;7.10;6.50;;;;;;;32.76;42.85;100393.73;2239681;78;20946;-72
2022/07/22 07:35:15;;;;;;;9.15;7.03;;;;;;;32.73;42.42;100387.48;2245480;77;21027;-72
2022/07/22 07:38:19;;;;;;;7.17;6.45;;;;;;;32.68;42.04;100385.66;2248898;78;20950;-75
2022/07/22 07:41:21;;;;;;;7.92;6.87;;;;;;;32.37;41.70;100388.20;2237621;78;20974;-75
2022/07/22 07:44:24;;;;;;;9.00;6.47;;;;;;;32.14;42.04;100381.81;2241521;78;21481;-75
2022/07/22 07:47:25;;;;;;;7.15;6.50;;;;;;;31.81;42.43;100385.16;2243899;78;21052;-77
2022/07/22 07:50:27;;;;;;;7.47;6.78;;;;;;;31.37;42.48;100376.88;2244372;78;21104;-74
2022/07/22 07:53:29;;;;;;;10.00;6.95;;;;;;;31.07;42.45;100378.14;2238871;78;21051;-76
2022/07/22 07:56:30;;;;;;;7.15;6.50;;;;;;;30.93;43.08;100376.70;2237244;78;21021;-72
2022/07/22 07:59:31;;;;;;;7.08;6.37;;;;;;;31.32;43.21;100380.48;2238693;78;21005;-73
2022/07/22 08:02:34;;;;;;;9.30;7.30;;;;;;;31.27;42.85;100385.48;2235747;78;22357;-73
2022/07/22 08:05:38;;;;;;;8.33;7.53;;;;;;;30.98;43.02;100376.08;2212350;78;21057;-74
2022/07/22 08:08:41;;;;;;;8.60;6.53;;;;;;;31.02;43.12;100377.66;2165838;81;20986;-73
2022/07/22 08:11:47;;;;;;;7.90;7.10;;;;;;;31.36;42.98;100376.05;2168329;81;22537;-74
2022/07/22 08:15:03;;;;;;;8.38;7.22;;;;;;;31.16;42.64;100383.20;2124595;81;20956;-74
2022/07/22 08:18:07;;;;;;;7.97;6.67;;;;;;;31.24;42.73;100386.08;2154923;81;21082;-73
2022/07/22 08:21:08;;;;;;;8.50;7.72;;;;;;;31.71;42.50;100391.09;2242253;78;20957;-71
2022/07/22 08:24:20;;;;;;;8.25;7.10;;;;;;;31.91;42.57;100391.30;2217449;78;21052;-70
2022/07/22 08:27:22;;;;;;;7.62;6.90;;;;;;;32.15;42.27;100389.73;2241336;78;20939;-68
2022/07/22 08:30:26;;;;;;;7.53;6.83;;;;;;;32.36;41.63;100381.10;2237212;78;21096;-70
2022/07/22 08:33:27;;;;;;;10.13;6.87;;;;;;;32.83;41.14;100388.61;2239539;78;21513;-72
2022/07/22 08:36:29;;;;;;;9.30;7.37;;;;;;;33.01;40.39;100386.88;2209068;78;21560;-71
2022/07/22 08:39:33;;;;;;;11.65;6.97;;;;;;;33.11;40.29;100392.12;2240654;78;21013;-72
2022/07/22 08:42:43;;;;;;;8.70;7.30;;;;;;;33.30;39.71;100386.44;2235138;78;21040;-72
2022/07/22 08:45:48;;;;;;;8.00;7.20;;;;;;;33.34;39.36;100390.20;2235832;78;21354;-72
2022/07/22 08:48:54;;;;;;;8.08;7.37;;;;;;;33.45;39.01;100390.20;2243830;78;21068;-72
2022/07/22 08:52:03;;;;;;;9.45;7.62;;;;;;;33.57;39.15;100389.66;2177659;78;21018;-72
2022/07/22 08:55:08;;;;;;;8.38;7.45;;;;;;;33.68;39.16;100384.70;2240137;78;21555;-72
2022/07/22 08:58:11;;;;;;;8.38;7.58;;;;;;;34.03;38.77;100388.99;2238739;78;21569;-72
2022/07/22 09:01:16;;;;;;;7.55;6.85;;;;;;;34.20;38.13;100382.77;2242068;78;21045;-73
2022/07/22 09:04:19;;;;;;;9.58;8.05;;;;;;;34.24;37.91;100380.45;2238943;78;21024;-73
2022/07/22 09:07:29;;;;;;;9.35;8.05;;;;;;;34.43;37.80;100380.72;2243330;78;20989;-72
2022/07/22 09:10:34;;;;;;;8.60;7.65;;;;;;;34.60;37.77;100383.53;2238858;78;21072;-72
2022/07/22 09:13:43;;;;;;;9.48;7.72;;;;;;;34.71;37.48;100377.15;2231935;78;21502;-72
2022/07/22 09:16:49;;;;;;;10.23;7.22;;;;;;;34.67;37.46;100372.86;2240576;78;21061;-73
2022/07/22 09:20:00;;;;;;;10.13;7.97;;;;;;;34.68;37.05;100375.05;2219678;78;21493;-72
2022/07/22 09:23:14;;;;;;;8.18;7.17;;;;;;;34.64;37.28;100365.81;2239109;78;21487;-73
2022/07/22 09:26:35;;;;;;;8.83;7.30;;;;;;;34.58;36.91;100368.72;2246327;78;21534;-72
2022/07/22 09:29:51;;;;;;;8.55;7.33;;;;;;;34.54;37.10;100373.20;2234993;78;21513;-69
2022/07/22 09:32:56;;;;;;;10.20;7.70;;;;;;;34.75;36.77;100374.02;2241364;78;21056;-70
2022/07/22 09:36:19;;;;;;;9.78;7.28;;;;;;;34.87;36.29;100366.47;2237559;78;21446;-73
2022/07/22 09:39:32;;;;;;;10.75;8.40;;;;;;;34.98;36.28;100366.39;2212395;78;20934;-72
2022/07/22 09:42:58;;;;;;;11.50;8.25;;;;;;;35.18;36.02;100367.70;2140544;82;21395;-73
2022/07/22 09:45:59;;;;;;;9.15;8.20;;;;;;;35.09;36.05;100365.53;2155678;81;21507;-75
2022/07/22 09:49:03;;;;;;;9.68;7.60;;;;;;;35.18;35.73;100364.95;2185612;80;21767;-74
2022/07/22 09:52:08;;;;;;;11.10;7.85;;;;;;;35.21;35.85;100367.05;2124657;82;21102;-77
2022/07/22 09:55:19;;;;;;;8.70;7.17;;;;;;;35.16;35.64;100359.74;2136135;82;21047;-76
2022/07/22 09:58:20;;;;;;;10.25;8.15;;;;;;;34.88;35.13;100354.30;2138554;82;21060;-77
2022/07/22 10:01:25;;;;;;;9.20;7.62;;;;;;;34.91;36.23;100352.27;2108111;83;21045;-76
2022/07/22 10:04:31;;;;;;;8.80;7.17;;;;;;;34.82;35.54;100346.77;2119527;83;21525;-75
2022/07/22 10:07:32;;;;;;;7.95;7.15;;;;;;;34.87;35.97;100351.31;2129107;82;21064;-77
2022/07/22 10:10:40;;;;;;;7.67;6.87;;;;;;;35.08;35.56;100349.53;2152394;82;21069;-76
2022/07/22 10:13:42;;;;;;;6.37;5.78;;;;;;;35.22;35.26;100350.16;2148063;81;21094;-77
2022/07/22 10:16:44;;;;;;;6.65;5.85;;;;;;;35.25;34.25;100350.08;2139893;82;21115;-77
2022/07/22 10:19:45;;;;;;;7.62;5.80;;;;;;;34.86;34.24;100342.24;2152260;82;21002;-76
2022/07/22 10:22:57;;;;;;;6.97;6.08;;;;;;;34.92;33.77;100338.75;2119226;82;21042;-77
2022/07/22 10:26:02;;;;;;;6.75;6.08;;;;;;;34.88;34.15;100345.46;2147901;82;21043;-76
2022/07/22 10:29:43;;;;;;;7.37;6.60;;;;;;;34.75;33.91;100334.86;2145900;82;21016;-76
2022/07/22 10:32:44;;;;;;;13.03;6.30;;;;;;;34.76;33.85;100332.34;2113937;82;21065;-75
2022/07/22 10:36:00;;;;;;;6.80;6.10;;;;;;;34.43;33.56;100331.14;2149930;82;21026;-74
2022/07/22 10:39:07;;;;;;;8.00;7.10;;;;;;;33.81;33.61;100338.37;2147368;82;21007;-74
2022/07/22 10:42:08;;;;;;;7.92;6.75;;;;;;;33.19;34.12;100338.34;2148332;82;20975;-75
2022/07/22 10:45:14;;;;;;;6.78;5.90;;;;;;;32.93;35.02;100334.00;2148003;82;21011;-73
2022/07/22 10:48:29;;;;;;;7.22;6.47;;;;;;;33.24;34.87;100335.47;2116559;82;21669;-77
2022/07/22 10:51:30;;;;;;;7.58;5.87;;;;;;;33.81;34.13;100332.88;2148949;82;21042;-75
2022/07/22 10:54:36;;;;;;;6.92;6.28;;;;;;;34.11;33.64;100324.93;2162777;81;21117;-75
2022/07/22 10:57:38;;;;;;;7.33;6.33;;;;;;;34.39;33.66;100320.54;2172229;80;21479;-75
2022/07/22 11:00:39;;;;;;;6.25;5.65;;;;;;;34.55;33.11;100328.55;2180142;80;21101;-75
2022/07/22 11:03:44;;;;;;;6.55;5.40;;;;;;;34.17;32.76;100327.77;2176714;80;21097;-74
2022/07/22 11:06:48;;;;;;;6.87;6.05;;;;;;;34.18;32.57;100323.88;2179976;80;21039;-74
2022/07/22 11:09:49;;;;;;;7.97;5.50;;;;;;;34.23;32.90;100319.61;2177304;81;21588;-75
2022/07/22 11:12:53;;;;;;;10.82;5.22;;;;;;;34.32;32.69;100317.67;2174242;80;21074;-74
2022/07/22 11:15:54;;;;;;;6.80;5.75;;;;;;;34.47;33.07;100310.10;2179244;80;21557;-75
2022/07/22 11:18:59;;;;;;;5.55;4.90;;;;;;;34.70;32.11;100311.59;2179416;80;20966;-75
2022/07/22 11:22:05;;;;;;;6.05;5.55;;;;;;;34.89;31.60;100311.81;2180517;80;21013;-75
2022/07/22 11:25:09;;;;;;;7.87;5.65;;;;;;;34.81;31.14;100306.57;2182667;80;21050;-75
2022/07/22 11:28:11;;;;;;;8.48;5.65;;;;;;;34.92;31.30;100304.30;2174324;80;21541;-76
2022/07/22 11:31:18;;;;;;;9.38;5.72;;;;;;;34.92;30.83;100302.34;2178748;80;21316;-75
2022/07/22 11:34:20;;;;;;;6.10;5.25;;;;;;;35.02;30.52;100299.81;2175594;80;21033;-74
2022/07/22 11:37:24;;;;;;;6.03;5.42;;;;;;;34.67;30.76;100292.16;2177628;80;21030;-69
2022/07/22 11:40:33;;;;;;;8.08;5.28;;;;;;;34.79;31.04;100298.62;2178307;80;21039;-74
2022/07/22 11:43:47;;;;;;;7.70;5.22;;;;;;;34.73;30.95;100288.09;2178444;80;21440;-73
2022/07/22 11:46:51;;;;;;;6.33;5.17;;;;;;;34.78;31.03;100294.25;2157095;81;20950;-75
2022/07/22 11:49:55;;;;;;;6.58;5.17;;;;;;;34.86;30.81;100287.12;2246020;78;21021;-74
2022/07/22 11:53:03;;;;;;;8.08;5.97;;;;;;;34.70;30.50;100285.98;2240419;78;21530;-75
2022/07/22 11:56:07;;;;;;;5.92;5.35;;;;;;;34.57;30.79;100286.38;2218363;78;21112;-75
2022/07/22 11:59:15;;;;;;;9.23;5.60;;;;;;;34.56;31.11;100286.95;2220755;79;21021;-74
2022/07/22 12:02:18;;;;;;;5.10;4.60;;;;;;;34.68;30.43;100280.79;2214148;79;21048;-75
2022/07/22 12:05:21;;;;;;;7.90;4.75;;;;;;;34.79;30.69;100279.33;2213533;79;21076;-73
2022/07/22 12:08:23;;;;;;;5.87;5.12;;;;;;;34.86;30.99;100272.50;2217884;78;20974;-73
2022/07/22 12:11:25;;;;;;;10.05;6.22;;;;;;;34.99;30.74;100275.66;2214265;79;21473;-73
2022/07/22 12:14:31;;;;;;;6.35;5.25;;;;;;;35.10;30.65;100270.07;2215999;79;21041;-76
2022/07/22 12:17:32;;;;;;;10.38;4.92;;;;;;;35.08;30.19;100266.82;2217711;79;20973;-74
2022/07/22 12:20:39;;;;;;;7.00;4.58;;;;;;;34.88;30.50;100268.86;2223059;79;21026;-75
2022/07/22 12:23:52;;;;;;;5.35;4.85;;;;;;;34.78;30.65;100266.69;2220525;79;21045;-74
2022/07/22 12:26:57;;;;;;;5.67;4.97;;;;;;;34.78;30.59;100266.69;2196802;79;21569;-74
2022/07/22 12:30:04;;;;;;;6.03;4.92;;;;;;;34.85;30.00;100264.81;2221078;79;21068;-73
2022/07/22 12:33:16;;;;;;;5.92;5.40;;;;;;;34.89;30.61;100256.69;2212140;79;21034;-73
2022/07/22 12:36:18;;;;;;;5.35;4.83;;;;;;;34.91;29.86;100255.80;2214204;79;20958;-73
2022/07/22 12:39:20;;;;;;;8.28;5.15;;;;;;;34.79;29.79;100252.34;2191168;77;20963;-72
2022/07/22 12:42:25;;;;;;;5.55;4.70;;;;;;;34.64;30.01;100246.77;2170971;81;21050;-72
2022/07/22 12:45:28;;;;;;;6.17;4.53;;;;;;;34.56;30.47;100247.01;2144621;82;21020;-73
2022/07/22 12:48:30;;;;;;;6.78;5.58;;;;;;;34.72;30.48;100242.37;2145299;82;21035;-73
2022/07/22 12:51:31;;;;;;;6.33;5.30;;;;;;;34.38;30.67;100242.59;2142183;82;20999;-73
2022/07/22 12:54:35;;;;;;;7.15;5.28;;;;;;;34.44;31.28;100240.48;2143945;81;21031;-73
2022/07/22 12:57:41;;;;;;;10.05;4.90;;;;;;;34.31;30.92;100237.58;2148048;81;21121;-75
2022/07/22 13:00:51;;;;;;;5.28;4.72;;;;;;;34.05;30.84;100236.75;2153263;81;21069;-73
2022/07/22 13:03:52;;;;;;;7.10;5.20;;;;;;;33.52;31.22;100234.92;2242052;78;21089;-75
2022/07/22 13:06:55;;;;;;;7.35;5.30;;;;;;;33.17;31.33;100240.24;2204071;78;21483;-75
2022/07/22 13:09:56;;;;;;;5.90;5.30;;;;;;;33.13;32.17;100233.77;2237511;78;21612;-75
2022/07/22 13:12:58;;;;;;;5.53;4.92;;;;;;;33.12;31.93;100230.78;2244597;78;21072;-72
2022/07/22 13:16:01;;;;;;;8.45;5.80;;;;;;;33.13;31.64;100231.02;2235857;78;20994;-74
2022/07/22 13:19:06;;;;;;;6.17;5.33;;;;;;;33.09;30.92;100224.54;2236335;78;21271;-77
2022/07/22 13:22:08;;;;;;;8.58;5.00;;;;;;;33.03;30.74;100223.30;2238510;78;20958;-76
2022/07/22 13:25:09;;;;;;;8.78;4.70;;;;;;;32.90;31.64;100224.72;2237499;78;20997;-75
2022/07/22 13:28:11;;;;;;;9.23;5.20;;;;;;;32.88;32.09;100222.27;2235137;78;21636;-76
2022/07/22 13:31:17;;;;;;;9.28;5.22;;;;;;;32.63;31.64;100218.78;2236709;78;21013;-77
2022/07/22 13:34:19;;;;;;;6.47;4.70;;;;;;;32.47;31.92;100216.42;2236368;78;20981;-77
2022/07/22 13:37:22;;;;;;;7.15;4.67;;;;;;;32.42;32.71;100220.62;2235401;78;21580;-77
2022/07/22 13:40:25;;;;;;;5.70;5.10;;;;;;;32.32;32.83;100218.09;2236488;78;21048;-77
2022/07/22 13:43:26;;;;;;;5.17;4.78;;;;;;;32.30;33.85;100216.25;2241706;78;20989;-77
2022/07/22 13:46:27;;;;;;;6.20;4.72;;;;;;;32.35;34.11;100221.59;2188598;80;21009;-77
2022/07/22 13:49:29;;;;;;;6.55;4.83;;;;;;;32.48;33.96;100212.54;2193649;80;21046;-77
2022/07/22 13:52:30;;;;;;;7.75;5.08;;;;;;;32.55;33.42;100218.95;2179671;80;21038;-75
2022/07/22 13:55:32;;;;;;;4.67;4.28;;;;;;;32.42;33.31;100215.12;2166300;80;21125;-78
2022/07/22 13:58:34;;;;;;;5.03;4.53;;;;;;;32.42;33.31;100208.27;2160701;80;21013;-79
2022/07/22 14:01:38;;;;;;;7.97;4.75;;;;;;;32.56;32.98;100213.17;2162563;80;21023;-77
2022/07/22 14:04:40;;;;;;;5.15;4.67;;;;;;;32.44;32.69;100212.89;2130725;82;21032;-77
2022/07/22 14:07:43;;;;;;;8.85;4.97;;;;;;;32.38;33.82;100216.86;2164094;81;21033;-78
2022/07/22 14:10:44;;;;;;;6.08;4.58;;;;;;;32.25;33.42;100206.75;2158993;80;21038;-77
2022/07/22 14:13:46;;;;;;;4.72;4.33;;;;;;;32.48;33.09;100209.80;2161235;82;21107;-78